• Join FlightAware (Why Join?)
  • Login
  • US Flag 
08:29AM EDT


 

Airport Tracker/Info


-or-


 

Live Flight TrackerFlight Track Log ✈ UAL4693 ✈ 09-Oct-2013 ✈ KIAD - KORF

Flight Track Log - Related Links

Times and Time Zones

All times are in EDT time to prevent confusion due to time zone crossing. See the UAL4693 flight status page for this flight to view local times or setup timezone preferences in your user account.

Time Position Orientation Groundspeed Altitude Reporting Facility
EDT Latitude Longitude Course Direction KTS MPH feet Rate Location/Type
10:42PM 38.9667 -77.5167 126° Southeast 168 193 2,100  Level Potomac TRACON
10:43PM 39.0000 -77.5333 339° North 184 212 3,600 2,040 Climbing Potomac TRACON
10:44PM 38.7302 -77.3229 125° Southeast  Level Estimated
10:44PM 39.0667 -77.5500 349° North 222 255 6,000  Level Potomac TRACON
10:45PM 38.7074 -77.2237 106° East  Level FlightAware Approximate
10:45PM 39.1167 -77.5333 14° North 225 259 8,400  Level Potomac TRACON
10:46PM 38.6845 -77.1246 106° East  Level FlightAware Approximate
10:47PM 38.6099 -77.0852 126° Southeast  Level Estimated
10:47PM 39.1239 -77.3228 87° East 245 282 10,800  Level Washington Center
10:48PM 39.0900 -77.2175 112° Southeast 277 319 12,100 1,260 Climbing Washington Center
10:49PM 39.0581 -77.1047 110° East 306 352 13,300 900 Climbing Washington Center
10:50PM 39.0094 -77.0019 121° Southeast 324 373 14,000 600 Climbing Washington Center
10:51PM 38.9267 -76.9339 147° Southeast 337 388 14,600 480 Climbing Washington Center
10:52PM 38.8356 -76.8842 157° South 342 394 15,000 60 Climbing Washington Center
10:53PM 38.7653 -76.8164 143° Southeast 328 377 14,800 -540 Descending Washington Center
10:54PM 38.6950 -76.7619 149° Southeast 312 359 14,000 -420 Descending Washington Center
10:55PM 38.6097 -76.7394 168° South 305 351 14,000 -60 Level Washington Center
10:56PM 38.5119 -76.7219 172° South 330 380 13,900 -60 Descending Washington Center
10:57PM 38.4100 -76.7072 174° South 351 404 13,900  Level Washington Center
10:58PM 38.3144 -76.6633 160° South 363 418 13,900  Level Washington Center
10:59PM 38.2208 -76.6172 159° South 363 418 13,900  Level Washington Center
11:00PM 38.1317 -76.5736 159° South 358 412 13,900  Level Washington Center
11:01PM 38.0403 -76.5303 160° South 353 406 13,900  Level Washington Center
11:02PM 37.9406 -76.4844 160° South 353 406 13,900  Level Washington Center
11:03PM 37.8489 -76.4439 161° South 348 400 13,900 -120 Level Washington Center
11:04PM 37.8200 -76.4331 163° South 345 397 13,800 -240 Descending Washington Center
11:04PM 37.8053 -76.4275 163° South 345 397 13,800  Level Washington Center
11:04PM 37.7597 -76.4008 155° Southeast 348 400 13,800  Level Washington Center
11:05PM 37.7158 -76.3844 164° South 345 397 13,800 180 Level Washington Center
11:05PM 37.6703 -76.3606 157° South 348 400 14,000 -1,020 Climbing Washington Center
11:06PM 37.6286 -76.3417 160° South 331 381 12,800 -2,460 Descending Washington Center
11:06PM 37.5892 -76.3231 159° South 337 388 11,500 -2,280 Descending Washington Center
11:07PM 37.5453 -76.3094 166° South 283 326 10,300 -2,040 Descending Washington Center
11:07PM 37.5142 -76.2961 161° South 308 354 9,600 -1,740 Descending Washington Center
11:08PM 37.4703 -76.2853 169° South 268 308 8,500 -1,920 Descending Washington Center
11:08PM 37.4392 -76.2719 161° South 285 328 7,700 -1,740 Descending Washington Center
11:09PM 37.3997 -76.2636 170° South 267 307 6,800 -1,320 Descending Washington Center
11:09PM 37.3683 -76.2608 176° South 273 314 6,400 -1,020 Descending Washington Center
11:10PM 37.3244 -76.2606 180° South 259 298 5,800 -900 Descending Washington Center
11:10PM 37.2953 -76.2603 180° South 273 314 5,500 -840 Descending Washington Center
11:11PM 37.2472 -76.2625 182° South 263 303 5,000 -540 Descending Washington Center
11:11PM 37.2222 -76.2622 179° South 268 308 5,000  Level Washington Center
11:12PM 37.1744 -76.2644 182° South 253 291 5,000  Level Washington Center
11:12PM 37.1514 -76.2642 179° South 268 308 5,000  Level Washington Center
11:13PM 37.0806 -76.2636 180° South 263 303 5,000  Level Washington Center
11:14PM 37.0303 -76.2658 182° South 257 296 5,000  Level Washington Center
11:15PM 36.9575 -76.2650 179° South 254 292 5,000  Level Washington Center
11:16PM 36.8967 -76.3036 207° Southwest 271 312 5,000 -180 Level Washington Center
11:17PM 36.8483 -76.3653 226° Southwest 250 288 4,700 -660 Descending Washington Center
11:18PM 36.7936 -76.4167 217° Southwest 261 300 3,700 -1,080 Descending Washington Center
11:19PM 36.7481 -76.3644 137° Southeast 170 196 2,300 -780 Descending Washington Center
11:20PM 36.7692 -76.3256 56° Northeast 157 181 2,100 -180 Descending Washington Center
11:21PM 36.8050 -76.2897 39° Northeast 118 136 2,000 -240 Descending Washington Center
11:22PM 36.8258 -76.2692 38° Northeast 100 115 1,600 -480 Descending Washington Center
11:23PM 36.8489 -76.2486 36° Northeast 105 121 1,100 -600 Descending Washington Center
11:24PM 36.8742 -76.2253 36° Northeast 114 131 500 -600 Descending Washington Center